sensor_id;sensor_type;location;lat;lon;timestamp;pressure;altitude;pressure_sealevel;temperature;humidity
41044;BME280;51680;49.806;18.774;2023-11-22T00:02:52;97463.47;;;4.63;84.78
41044;BME280;51680;49.806;18.774;2023-11-22T00:05:54;97460.91;;;4.63;85.35
41044;BME280;51680;49.806;18.774;2023-11-22T00:08:57;97473.97;;;4.60;85.30
41044;BME280;51680;49.806;18.774;2023-11-22T00:11:59;97473.81;;;4.63;85.31
41044;BME280;51680;49.806;18.774;2023-11-22T00:15:02;97483.16;;;4.67;85.21
41044;BME280;51680;49.806;18.774;2023-11-22T00:18:06;97480.09;;;4.58;85.41
41044;BME280;51680;49.806;18.774;2023-11-22T00:21:08;97493.97;;;4.55;85.35
41044;BME280;51680;49.806;18.774;2023-11-22T00:24:11;97485.63;;;4.49;85.34
41044;BME280;51680;49.806;18.774;2023-11-22T00:27:13;97495.44;;;4.39;85.05
41044;BME280;51680;49.806;18.774;2023-11-22T00:30:16;97495.78;;;4.30;85.21
41044;BME280;51680;49.806;18.774;2023-11-22T00:33:18;97505.41;;;4.27;85.41
41044;BME280;51680;49.806;18.774;2023-11-22T00:36:20;97510.81;;;4.21;85.45
41044;BME280;51680;49.806;18.774;2023-11-22T00:39:42;97506.59;;;4.18;86.15
41044;BME280;51680;49.806;18.774;2023-11-22T00:42:45;97508.44;;;4.15;86.35
41044;BME280;51680;49.806;18.774;2023-11-22T00:45:48;97506.84;;;4.12;86.08
41044;BME280;51680;49.806;18.774;2023-11-22T00:48:50;97507.03;;;4.06;86.08
41044;BME280;51680;49.806;18.774;2023-11-22T00:51:52;97496.50;;;4.12;86.15
41044;BME280;51680;49.806;18.774;2023-11-22T00:54:56;97503.78;;;4.24;85.93
41044;BME280;51680;49.806;18.774;2023-11-22T00:57:58;97502.66;;;4.31;86.08
41044;BME280;51680;49.806;18.774;2023-11-22T01:01:04;97513.81;;;4.32;85.99
41044;BME280;51680;49.806;18.774;2023-11-22T01:04:07;97509.66;;;4.28;86.00
41044;BME280;51680;49.806;18.774;2023-11-22T01:07:09;97513.19;;;4.25;86.03
41044;BME280;51680;49.806;18.774;2023-11-22T01:10:12;97519.94;;;4.29;86.24
41044;BME280;51680;49.806;18.774;2023-11-22T01:13:14;97527.41;;;4.37;86.26
41044;BME280;51680;49.806;18.774;2023-11-22T01:16:35;97522.75;;;4.46;85.68
41044;BME280;51680;49.806;18.774;2023-11-22T01:19:38;97514.34;;;4.41;85.77
41044;BME280;51680;49.806;18.774;2023-11-22T01:22:40;97520.31;;;4.42;85.89
41044;BME280;51680;49.806;18.774;2023-11-22T01:25:44;97521.19;;;4.42;86.00
41044;BME280;51680;49.806;18.774;2023-11-22T01:29:04;97528.25;;;4.37;85.76
41044;BME280;51680;49.806;18.774;2023-11-22T01:32:06;97527.59;;;4.32;85.61
41044;BME280;51680;49.806;18.774;2023-11-22T01:35:09;97533.94;;;4.24;85.47
41044;BME280;51680;49.806;18.774;2023-11-22T01:38:11;97534.44;;;4.10;85.55
41044;BME280;51680;49.806;18.774;2023-11-22T01:41:14;97533.72;;;4.07;85.39
41044;BME280;51680;49.806;18.774;2023-11-22T01:44:16;97540.69;;;4.05;86.23
41044;BME280;51680;49.806;18.774;2023-11-22T01:47:18;97551.22;;;3.99;85.54
41044;BME280;51680;49.806;18.774;2023-11-22T01:50:20;97554.78;;;3.95;85.83
41044;BME280;51680;49.806;18.774;2023-11-22T01:53:23;97555.88;;;3.89;85.85
41044;BME280;51680;49.806;18.774;2023-11-22T01:56:28;97552.59;;;3.84;86.04
41044;BME280;51680;49.806;18.774;2023-11-22T01:59:30;97549.22;;;3.82;85.54
41044;BME280;51680;49.806;18.774;2023-11-22T02:02:33;97557.97;;;3.78;85.54
41044;BME280;51680;49.806;18.774;2023-11-22T02:05:39;97559.75;;;3.76;86.39
41044;BME280;51680;49.806;18.774;2023-11-22T02:08:42;97565.16;;;3.70;86.14
41044;BME280;51680;49.806;18.774;2023-11-22T02:11:46;97562.56;;;3.70;85.88
41044;BME280;51680;49.806;18.774;2023-11-22T02:14:49;97562.56;;;3.70;86.47
41044;BME280;51680;49.806;18.774;2023-11-22T02:17:51;97572.00;;;3.71;85.90
41044;BME280;51680;49.806;18.774;2023-11-22T02:20:54;97577.06;;;3.74;85.67
41044;BME280;51680;49.806;18.774;2023-11-22T02:23:57;97567.72;;;3.70;85.56
41044;BME280;51680;49.806;18.774;2023-11-22T02:26:59;97578.09;;;3.69;86.13
41044;BME280;51680;49.806;18.774;2023-11-22T02:30:20;97582.53;;;3.65;85.98
41044;BME280;51680;49.806;18.774;2023-11-22T02:33:22;97583.34;;;3.66;85.81
41044;BME280;51680;49.806;18.774;2023-11-22T02:36:25;97593.66;;;3.66;85.77
41044;BME280;51680;49.806;18.774;2023-11-22T02:39:35;97584.91;;;3.71;85.99
41044;BME280;51680;49.806;18.774;2023-11-22T02:42:39;97588.06;;;3.79;86.38
41044;BME280;51680;49.806;18.774;2023-11-22T02:45:41;97591.28;;;3.86;86.13
41044;BME280;51680;49.806;18.774;2023-11-22T02:48:43;97602.38;;;3.88;85.77
41044;BME280;51680;49.806;18.774;2023-11-22T02:51:45;97596.31;;;3.89;85.31
41044;BME280;51680;49.806;18.774;2023-11-22T02:54:49;97602.78;;;3.76;84.96
41044;BME280;51680;49.806;18.774;2023-11-22T02:57:51;97606.41;;;3.72;85.48
41044;BME280;51680;49.806;18.774;2023-11-22T03:00:53;97604.53;;;3.75;85.45
41044;BME280;51680;49.806;18.774;2023-11-22T03:03:55;97618.28;;;3.76;85.35
41044;BME280;51680;49.806;18.774;2023-11-22T03:06:59;97621.72;;;3.76;85.54
41044;BME280;51680;49.806;18.774;2023-11-22T03:10:04;97618.53;;;3.68;85.13
41044;BME280;51680;49.806;18.774;2023-11-22T03:13:08;97628.16;;;3.63;85.45
41044;BME280;51680;49.806;18.774;2023-11-22T03:16:10;97633.34;;;3.63;85.18
41044;BME280;51680;49.806;18.774;2023-11-22T03:19:12;97636.94;;;3.59;85.60
41044;BME280;51680;49.806;18.774;2023-11-22T03:22:14;97649.91;;;3.56;85.74
41044;BME280;51680;49.806;18.774;2023-11-22T03:25:17;97638.56;;;3.62;85.49
41044;BME280;51680;49.806;18.774;2023-11-22T03:28:20;97647.81;;;3.67;85.58
41044;BME280;51680;49.806;18.774;2023-11-22T03:31:23;97655.72;;;3.63;85.30
41044;BME280;51680;49.806;18.774;2023-11-22T03:34:25;97668.03;;;3.55;85.86
41044;BME280;51680;49.806;18.774;2023-11-22T03:37:27;97674.03;;;3.55;85.88
41044;BME280;51680;49.806;18.774;2023-11-22T03:40:30;97670.66;;;3.53;86.22
41044;BME280;51680;49.806;18.774;2023-11-22T03:43:32;97683.75;;;3.47;86.01
41044;BME280;51680;49.806;18.774;2023-11-22T03:46:34;97691.41;;;3.50;86.04
41044;BME280;51680;49.806;18.774;2023-11-22T03:49:54;97696.22;;;3.33;85.98
41044;BME280;51680;49.806;18.774;2023-11-22T03:52:56;97709.13;;;3.33;85.77
41044;BME280;51680;49.806;18.774;2023-11-22T03:56:00;97708.19;;;3.36;86.14
41044;BME280;51680;49.806;18.774;2023-11-22T03:59:02;97715.09;;;3.35;86.20
41044;BME280;51680;49.806;18.774;2023-11-22T04:02:04;97722.53;;;3.44;86.32
41044;BME280;51680;49.806;18.774;2023-11-22T04:05:09;97732.94;;;3.43;85.86
41044;BME280;51680;49.806;18.774;2023-11-22T04:08:11;97737.84;;;3.50;85.59
41044;BME280;51680;49.806;18.774;2023-11-22T04:11:15;97728.22;;;3.55;85.84
41044;BME280;51680;49.806;18.774;2023-11-22T04:14:18;97729.03;;;3.57;85.85
41044;BME280;51680;49.806;18.774;2023-11-22T04:17:20;97737.66;;;3.56;86.01
41044;BME280;51680;49.806;18.774;2023-11-22T04:20:22;97746.38;;;3.52;86.13
41044;BME280;51680;49.806;18.774;2023-11-22T04:23:24;97751.53;;;3.52;86.32
41044;BME280;51680;49.806;18.774;2023-11-22T04:26:28;97751.63;;;3.49;85.97
41044;BME280;51680;49.806;18.774;2023-11-22T04:29:30;97756.97;;;3.43;86.16
41044;BME280;51680;49.806;18.774;2023-11-22T04:32:32;97775.16;;;3.40;86.39
41044;BME280;51680;49.806;18.774;2023-11-22T04:35:34;97776.13;;;3.36;85.79
41044;BME280;51680;49.806;18.774;2023-11-22T04:38:38;97783.91;;;3.35;85.97
41044;BME280;51680;49.806;18.774;2023-11-22T04:41:41;97798.78;;;3.25;85.88
41044;BME280;51680;49.806;18.774;2023-11-22T04:44:43;97806.66;;;3.21;86.18
41044;BME280;51680;49.806;18.774;2023-11-22T04:47:47;97801.53;;;3.19;85.80
41044;BME280;51680;49.806;18.774;2023-11-22T04:50:49;97804.22;;;3.16;86.18
41044;BME280;51680;49.806;18.774;2023-11-22T04:53:50;97816.31;;;3.14;85.97
41044;BME280;51680;49.806;18.774;2023-11-22T04:56:54;97807.59;;;3.18;85.88
41044;BME280;51680;49.806;18.774;2023-11-22T04:59:56;97816.22;;;3.17;86.00
41044;BME280;51680;49.806;18.774;2023-11-22T05:03:01;97820.53;;;3.17;85.94
41044;BME280;51680;49.806;18.774;2023-11-22T05:06:03;97825.00;;;3.10;85.92
41044;BME280;51680;49.806;18.774;2023-11-22T05:09:06;97835.31;;;3.10;86.63
41044;BME280;51680;49.806;18.774;2023-11-22T05:12:10;97831.09;;;3.08;86.50
41044;BME280;51680;49.806;18.774;2023-11-22T05:15:30;97839.75;;;3.05;86.39
41044;BME280;51680;49.806;18.774;2023-11-22T05:18:32;97835.69;;;2.98;86.33
41044;BME280;51680;49.806;18.774;2023-11-22T05:21:34;97845.88;;;3.01;86.23
41044;BME280;51680;49.806;18.774;2023-11-22T05:24:36;97849.28;;;3.03;86.19
41044;BME280;51680;49.806;18.774;2023-11-22T05:27:42;97844.13;;;3.03;86.30
41044;BME280;51680;49.806;18.774;2023-11-22T05:30:44;97853.63;;;3.01;86.20
41044;BME280;51680;49.806;18.774;2023-11-22T05:33:46;97851.16;;;2.98;85.88
41044;BME280;51680;49.806;18.774;2023-11-22T05:36:48;97856.19;;;3.01;86.41
41044;BME280;51680;49.806;18.774;2023-11-22T05:39:50;97852.75;;;3.02;86.18
41044;BME280;51680;49.806;18.774;2023-11-22T05:42:54;97846.81;;;2.99;85.78
41044;BME280;51680;49.806;18.774;2023-11-22T05:45:56;97849.47;;;2.97;86.03
41044;BME280;51680;49.806;18.774;2023-11-22T05:48:58;97850.66;;;2.84;85.78
41044;BME280;51680;49.806;18.774;2023-11-22T05:52:01;97852.47;;;2.81;86.38
41044;BME280;51680;49.806;18.774;2023-11-22T05:55:03;97862.81;;;2.79;86.28
41044;BME280;51680;49.806;18.774;2023-11-22T05:58:07;97876.41;;;2.86;86.44
41044;BME280;51680;49.806;18.774;2023-11-22T06:01:10;97879.00;;;2.84;86.24
41044;BME280;51680;49.806;18.774;2023-11-22T06:04:13;97880.19;;;2.71;85.94
41044;BME280;51680;49.806;18.774;2023-11-22T06:07:15;97887.25;;;2.65;86.09
41044;BME280;51680;49.806;18.774;2023-11-22T06:10:17;97901.94;;;2.61;86.32
41044;BME280;51680;49.806;18.774;2023-11-22T06:13:20;97905.22;;;2.68;86.64
41044;BME280;51680;49.806;18.774;2023-11-22T06:16:22;97910.34;;;2.69;86.47
41044;BME280;51680;49.806;18.774;2023-11-22T06:19:24;97902.59;;;2.69;86.59
41044;BME280;51680;49.806;18.774;2023-11-22T06:22:26;97911.13;;;2.71;86.41
41044;BME280;51680;49.806;18.774;2023-11-22T06:25:28;97919.00;;;2.67;85.99
41044;BME280;51680;49.806;18.774;2023-11-22T06:28:31;97915.56;;;2.66;86.07
41044;BME280;51680;49.806;18.774;2023-11-22T06:31:33;97925.00;;;2.66;86.39
41044;BME280;51680;49.806;18.774;2023-11-22T06:34:36;97929.25;;;2.68;86.59
41044;BME280;51680;49.806;18.774;2023-11-22T06:37:38;97932.63;;;2.70;86.21
41044;BME280;51680;49.806;18.774;2023-11-22T06:40:40;97930.81;;;2.74;86.06
41044;BME280;51680;49.806;18.774;2023-11-22T06:43:43;97930.09;;;2.69;85.96
41044;BME280;51680;49.806;18.774;2023-11-22T06:46:45;97927.53;;;2.67;86.37
41044;BME280;51680;49.806;18.774;2023-11-22T06:49:48;97928.63;;;2.59;86.44
41044;BME280;51680;49.806;18.774;2023-11-22T06:52:50;97939.56;;;2.68;86.71
41044;BME280;51680;49.806;18.774;2023-11-22T06:55:53;97942.81;;;2.75;86.84
41044;BME280;51680;49.806;18.774;2023-11-22T06:58:56;97953.19;;;2.73;86.42
41044;BME280;51680;49.806;18.774;2023-11-22T07:01:59;97944.06;;;2.60;86.29
41044;BME280;51680;49.806;18.774;2023-11-22T07:05:01;97958.84;;;2.52;86.46
41044;BME280;51680;49.806;18.774;2023-11-22T07:08:03;97956.56;;;2.40;87.13
41044;BME280;51680;49.806;18.774;2023-11-22T07:11:05;97972.06;;;2.37;87.23
41044;BME280;51680;49.806;18.774;2023-11-22T07:14:11;97967.81;;;2.36;87.52
41044;BME280;51680;49.806;18.774;2023-11-22T07:17:14;97971.13;;;2.41;87.33
41044;BME280;51680;49.806;18.774;2023-11-22T07:20:18;97972.00;;;2.40;87.41
41044;BME280;51680;49.806;18.774;2023-11-22T07:23:20;97982.41;;;2.36;86.96
41044;BME280;51680;49.806;18.774;2023-11-22T07:26:26;97982.69;;;2.24;87.79
41044;BME280;51680;49.806;18.774;2023-11-22T07:29:29;97980.81;;;2.30;87.69
41044;BME280;51680;49.806;18.774;2023-11-22T07:32:33;97997.84;;;2.36;87.61
41044;BME280;51680;49.806;18.774;2023-11-22T07:35:35;98010.06;;;2.28;87.40
41044;BME280;51680;49.806;18.774;2023-11-22T07:38:37;97995.72;;;2.16;88.07
41044;BME280;51680;49.806;18.774;2023-11-22T07:41:40;97999.28;;;2.09;88.12
41044;BME280;51680;49.806;18.774;2023-11-22T07:44:43;97999.16;;;2.15;88.25
41044;BME280;51680;49.806;18.774;2023-11-22T07:47:45;98012.91;;;2.14;89.29
41044;BME280;51680;49.806;18.774;2023-11-22T07:50:48;98018.00;;;2.19;88.46
41044;BME280;51680;49.806;18.774;2023-11-22T07:53:50;98019.56;;;2.24;88.34
41044;BME280;51680;49.806;18.774;2023-11-22T07:56:52;98024.72;;;2.24;87.89
41044;BME280;51680;49.806;18.774;2023-11-22T07:59:55;98018.75;;;2.22;87.72
41044;BME280;51680;49.806;18.774;2023-11-22T08:02:58;98023.06;;;2.20;87.52
41044;BME280;51680;49.806;18.774;2023-11-22T08:06:02;98036.84;;;2.19;87.59
41044;BME280;51680;49.806;18.774;2023-11-22T08:09:05;98045.44;;;2.18;87.78
41044;BME280;51680;49.806;18.774;2023-11-22T08:12:09;98049.78;;;2.16;87.69
41044;BME280;51680;49.806;18.774;2023-11-22T08:15:15;98057.53;;;2.16;87.82
41044;BME280;51680;49.806;18.774;2023-11-22T08:18:18;98065.13;;;2.21;87.61
41044;BME280;51680;49.806;18.774;2023-11-22T08:21:20;98067.69;;;2.22;87.31
41044;BME280;51680;49.806;18.774;2023-11-22T08:24:23;98052.28;;;2.19;87.16
41044;BME280;51680;49.806;18.774;2023-11-22T08:27:25;98060.75;;;2.24;87.30
41044;BME280;51680;49.806;18.774;2023-11-22T08:30:29;98062.59;;;2.19;87.20
41044;BME280;51680;49.806;18.774;2023-11-22T08:33:33;98055.03;;;2.12;87.42
41044;BME280;51680;49.806;18.774;2023-11-22T08:36:35;98061.78;;;2.17;87.63
41044;BME280;51680;49.806;18.774;2023-11-22T08:39:37;98078.00;;;2.22;87.48
41044;BME280;51680;49.806;18.774;2023-11-22T08:42:40;98079.53;;;2.29;87.61
41044;BME280;51680;49.806;18.774;2023-11-22T08:45:44;98087.25;;;2.31;87.24
41044;BME280;51680;49.806;18.774;2023-11-22T08:48:46;98077.84;;;2.28;86.85
41044;BME280;51680;49.806;18.774;2023-11-22T08:51:47;98086.66;;;2.18;86.96
41044;BME280;51680;49.806;18.774;2023-11-22T08:55:08;98083.97;;;2.23;87.36
41044;BME280;51680;49.806;18.774;2023-11-22T08:58:10;98088.03;;;2.34;87.33
41044;BME280;51680;49.806;18.774;2023-11-22T09:01:14;98078.38;;;2.45;86.99
41044;BME280;51680;49.806;18.774;2023-11-22T09:04:16;98085.72;;;2.22;87.09
41044;BME280;51680;49.806;18.774;2023-11-22T09:07:19;98085.75;;;2.21;86.83
41044;BME280;51680;49.806;18.774;2023-11-22T09:10:22;98102.44;;;2.00;87.36
41044;BME280;51680;49.806;18.774;2023-11-22T09:13:24;98091.47;;;1.92;87.45
41044;BME280;51680;49.806;18.774;2023-11-22T09:16:27;98101.91;;;1.85;87.77
41044;BME280;51680;49.806;18.774;2023-11-22T09:19:29;98110.28;;;1.96;87.80
41044;BME280;51680;49.806;18.774;2023-11-22T09:22:31;98121.19;;;2.08;87.55
41044;BME280;51680;49.806;18.774;2023-11-22T09:25:33;98116.00;;;2.11;87.49
41044;BME280;51680;49.806;18.774;2023-11-22T09:28:36;98119.34;;;2.15;87.15
41044;BME280;51680;49.806;18.774;2023-11-22T09:31:39;98127.81;;;2.21;87.16
41044;BME280;51680;49.806;18.774;2023-11-22T09:34:42;98120.88;;;2.23;86.82
41044;BME280;51680;49.806;18.774;2023-11-22T09:37:45;98128.53;;;2.28;86.59
41044;BME280;51680;49.806;18.774;2023-11-22T09:40:48;98121.84;;;2.18;86.66
41044;BME280;51680;49.806;18.774;2023-11-22T09:43:50;98131.34;;;2.14;86.61
41044;BME280;51680;49.806;18.774;2023-11-22T09:46:55;98125.56;;;2.03;87.31
41044;BME280;51680;49.806;18.774;2023-11-22T09:50:01;98117.81;;;2.06;87.24
41044;BME280;51680;49.806;18.774;2023-11-22T09:53:11;98133.16;;;2.11;87.15
41044;BME280;51680;49.806;18.774;2023-11-22T09:56:14;98134.78;;;2.16;87.02
41044;BME280;51680;49.806;18.774;2023-11-22T09:59:18;98142.19;;;2.31;87.47
41044;BME280;51680;49.806;18.774;2023-11-22T10:02:25;98141.31;;;2.32;87.19
41044;BME280;51680;49.806;18.774;2023-11-22T10:05:29;98157.41;;;2.42;87.00
41044;BME280;51680;49.806;18.774;2023-11-22T10:08:31;98160.81;;;2.44;86.51
41044;BME280;51680;49.806;18.774;2023-11-22T10:11:33;98168.69;;;2.38;86.11
41044;BME280;51680;49.806;18.774;2023-11-22T10:14:36;98164.34;;;2.40;86.35
41044;BME280;51680;49.806;18.774;2023-11-22T10:17:40;98171.34;;;2.33;86.48
41044;BME280;51680;49.806;18.774;2023-11-22T10:20:43;98173.00;;;2.36;86.65
41044;BME280;51680;49.806;18.774;2023-11-22T10:23:47;98171.31;;;2.35;86.21
41044;BME280;51680;49.806;18.774;2023-11-22T10:26:52;98167.94;;;2.31;86.51
41044;BME280;51680;49.806;18.774;2023-11-22T10:29:54;98171.47;;;2.26;86.35
41044;BME280;51680;49.806;18.774;2023-11-22T10:32:57;98162.91;;;2.25;86.77
41044;BME280;51680;49.806;18.774;2023-11-22T10:36:01;98160.28;;;2.28;86.61
41044;BME280;51680;49.806;18.774;2023-11-22T10:39:08;98161.06;;;2.32;86.67
41044;BME280;51680;49.806;18.774;2023-11-22T10:42:10;98159.44;;;2.28;86.60
41044;BME280;51680;49.806;18.774;2023-11-22T10:45:13;98157.50;;;1.93;86.72
41044;BME280;51680;49.806;18.774;2023-11-22T10:48:17;98157.53;;;1.90;87.57
41044;BME280;51680;49.806;18.774;2023-11-22T10:51:21;98155.91;;;1.86;88.04
41044;BME280;51680;49.806;18.774;2023-11-22T10:54:26;98160.84;;;1.98;87.64
41044;BME280;51680;49.806;18.774;2023-11-22T10:57:31;98153.03;;;2.03;87.52
41044;BME280;51680;49.806;18.774;2023-11-22T11:00:34;98157.22;;;2.08;87.48
41044;BME280;51680;49.806;18.774;2023-11-22T11:03:40;98158.00;;;2.12;87.26
41044;BME280;51680;49.806;18.774;2023-11-22T11:06:51;98152.19;;;2.04;87.09
41044;BME280;51680;49.806;18.774;2023-11-22T11:09:56;98152.19;;;2.04;87.01
41044;BME280;51680;49.806;18.774;2023-11-22T11:12:59;98145.13;;;2.13;87.55
41044;BME280;51680;49.806;18.774;2023-11-22T11:16:02;98154.34;;;2.25;87.34
41044;BME280;51680;49.806;18.774;2023-11-22T11:19:06;98161.31;;;2.18;86.70
41044;BME280;51680;49.806;18.774;2023-11-22T11:22:09;98163.19;;;2.10;87.00
41044;BME280;51680;49.806;18.774;2023-11-22T11:25:15;98164.94;;;2.08;87.02
41044;BME280;51680;49.806;18.774;2023-11-22T11:28:19;98175.84;;;1.75;87.21
41044;BME280;51680;49.806;18.774;2023-11-22T11:31:21;98173.09;;;1.84;87.51
41044;BME280;51680;49.806;18.774;2023-11-22T11:34:25;98178.22;;;1.87;87.36
41044;BME280;51680;49.806;18.774;2023-11-22T11:37:29;98190.88;;;1.98;87.28
41044;BME280;51680;49.806;18.774;2023-11-22T11:40:31;98194.16;;;2.07;87.07
41044;BME280;51680;49.806;18.774;2023-11-22T11:43:41;98185.81;;;1.95;86.65
41044;BME280;51680;49.806;18.774;2023-11-22T11:46:44;98196.00;;;1.99;86.51
41044;BME280;51680;49.806;18.774;2023-11-22T11:49:50;98210.38;;;2.12;86.85
41044;BME280;51680;49.806;18.774;2023-11-22T11:52:52;98212.06;;;2.12;86.62
41044;BME280;51680;49.806;18.774;2023-11-22T11:55:54;98210.28;;;2.15;86.48
41044;BME280;51680;49.806;18.774;2023-11-22T11:58:57;98203.31;;;2.20;86.43
41044;BME280;51680;49.806;18.774;2023-11-22T12:02:00;98204.16;;;2.24;85.89
41044;BME280;51680;49.806;18.774;2023-11-22T12:05:07;98211.06;;;2.20;86.18
41044;BME280;51680;49.806;18.774;2023-11-22T12:08:09;98213.44;;;2.31;86.10
41044;BME280;51680;49.806;18.774;2023-11-22T12:11:14;98208.16;;;2.38;86.17
41044;BME280;51680;49.806;18.774;2023-11-22T12:14:18;98214.94;;;2.42;85.76
41044;BME280;51680;49.806;18.774;2023-11-22T12:17:22;98226.00;;;2.49;85.32
41044;BME280;51680;49.806;18.774;2023-11-22T12:20:26;98211.31;;;2.52;84.45
41044;BME280;51680;49.806;18.774;2023-11-22T12:23:32;98218.25;;;2.50;84.07
41044;BME280;51680;49.806;18.774;2023-11-22T12:26:34;98207.81;;;2.56;84.51
41044;BME280;51680;49.806;18.774;2023-11-22T12:29:36;98215.41;;;2.62;84.52
41044;BME280;51680;49.806;18.774;2023-11-22T12:32:39;98212.78;;;2.65;84.52
41044;BME280;51680;49.806;18.774;2023-11-22T12:35:44;98193.91;;;2.63;84.21
41044;BME280;51680;49.806;18.774;2023-11-22T12:38:47;98210.34;;;2.58;83.55
41044;BME280;51680;49.806;18.774;2023-11-22T12:41:50;98218.13;;;2.56;83.58
41044;BME280;51680;49.806;18.774;2023-11-22T12:44:52;98215.50;;;2.59;83.88
41044;BME280;51680;49.806;18.774;2023-11-22T12:47:55;98227.50;;;2.60;83.65
41044;BME280;51680;49.806;18.774;2023-11-22T12:51:00;98222.91;;;2.74;84.59
41044;BME280;51680;49.806;18.774;2023-11-22T12:54:03;98215.84;;;2.82;84.51
41044;BME280;51680;49.806;18.774;2023-11-22T12:57:10;98231.22;;;2.88;83.88
41044;BME280;51680;49.806;18.774;2023-11-22T13:00:14;98224.34;;;2.87;84.23
41044;BME280;51680;49.806;18.774;2023-11-22T13:03:16;98234.66;;;2.87;84.02
41044;BME280;51680;49.806;18.774;2023-11-22T13:06:20;98234.59;;;2.90;84.34
41044;BME280;51680;49.806;18.774;2023-11-22T13:09:25;98211.44;;;2.87;83.70
41044;BME280;51680;49.806;18.774;2023-11-22T13:12:27;98222.47;;;2.95;83.92
41044;BME280;51680;49.806;18.774;2023-11-22T13:15:29;98230.03;;;3.03;84.06
41044;BME280;51680;49.806;18.774;2023-11-22T13:18:31;98218.00;;;3.03;83.66
41044;BME280;51680;49.806;18.774;2023-11-22T13:21:34;98221.66;;;2.93;83.34
41044;BME280;51680;49.806;18.774;2023-11-22T13:24:36;98221.69;;;2.92;83.50
41044;BME280;51680;49.806;18.774;2023-11-22T13:27:39;98221.63;;;2.95;83.39
41044;BME280;51680;49.806;18.774;2023-11-22T13:30:41;98225.88;;;2.97;83.09
41044;BME280;51680;49.806;18.774;2023-11-22T13:33:43;98236.13;;;3.00;83.59
41044;BME280;51680;49.806;18.774;2023-11-22T13:36:49;98244.72;;;3.01;83.48
41044;BME280;51680;49.806;18.774;2023-11-22T13:39:51;98246.56;;;2.94;83.58
41044;BME280;51680;49.806;18.774;2023-11-22T13:42:53;98238.25;;;2.80;83.36
41044;BME280;51680;49.806;18.774;2023-11-22T13:45:55;98225.41;;;2.77;83.26
41044;BME280;51680;49.806;18.774;2023-11-22T13:48:57;98248.63;;;2.77;83.58
41044;BME280;51680;49.806;18.774;2023-11-22T13:52:01;98253.72;;;2.80;83.59
41044;BME280;51680;49.806;18.774;2023-11-22T13:55:04;98254.66;;;2.76;83.21
41044;BME280;51680;49.806;18.774;2023-11-22T13:58:10;98256.41;;;2.76;83.38
41044;BME280;51680;49.806;18.774;2023-11-22T14:01:12;98263.22;;;2.78;83.40
41044;BME280;51680;49.806;18.774;2023-11-22T14:04:21;98259.75;;;2.79;84.06
41044;BME280;51680;49.806;18.774;2023-11-22T14:07:44;98266.59;;;2.82;83.47
41044;BME280;51680;49.806;18.774;2023-11-22T14:10:46;98258.84;;;2.82;83.72
41044;BME280;51680;49.806;18.774;2023-11-22T14:13:48;98255.44;;;2.80;83.11
41044;BME280;51680;49.806;18.774;2023-11-22T14:16:50;98256.44;;;2.74;82.63
41044;BME280;51680;49.806;18.774;2023-11-22T14:19:52;98259.78;;;2.78;83.07
41044;BME280;51680;49.806;18.774;2023-11-22T14:22:56;98282.97;;;2.79;83.29
41044;BME280;51680;49.806;18.774;2023-11-22T14:25:58;98307.84;;;2.80;83.05
41044;BME280;51680;49.806;18.774;2023-11-22T14:29:01;98311.47;;;2.72;82.40
41044;BME280;51680;49.806;18.774;2023-11-22T14:32:04;98299.53;;;2.66;82.91
41044;BME280;51680;49.806;18.774;2023-11-22T14:35:08;98302.97;;;2.65;82.86
41044;BME280;51680;49.806;18.774;2023-11-22T14:38:11;98309.75;;;2.71;83.62
41044;BME280;51680;49.806;18.774;2023-11-22T14:41:14;98322.91;;;2.56;83.43
41044;BME280;51680;49.806;18.774;2023-11-22T14:44:17;98308.19;;;2.61;83.86
41044;BME280;51680;49.806;18.774;2023-11-22T14:47:20;98303.75;;;2.70;83.44
41044;BME280;51680;49.806;18.774;2023-11-22T14:50:25;98304.63;;;2.69;83.38
41044;BME280;51680;49.806;18.774;2023-11-22T14:53:29;98305.50;;;2.68;83.43
41044;BME280;51680;49.806;18.774;2023-11-22T14:56:31;98298.59;;;2.70;83.83
41044;BME280;51680;49.806;18.774;2023-11-22T14:59:34;98288.25;;;2.73;83.67
41044;BME280;51680;49.806;18.774;2023-11-22T15:02:37;98290.81;;;2.73;83.53
41044;BME280;51680;49.806;18.774;2023-11-22T15:05:39;98289.81;;;2.80;83.91
41044;BME280;51680;49.806;18.774;2023-11-22T15:08:43;98284.59;;;2.83;83.81
41044;BME280;51680;49.806;18.774;2023-11-22T15:11:45;98296.59;;;2.84;83.28
41044;BME280;51680;49.806;18.774;2023-11-22T15:14:48;98300.13;;;2.80;83.21
41044;BME280;51680;49.806;18.774;2023-11-22T15:17:50;98300.91;;;2.84;83.74
41044;BME280;51680;49.806;18.774;2023-11-22T15:20:52;98300.13;;;2.80;83.33
41044;BME280;51680;49.806;18.774;2023-11-22T15:23:55;98290.75;;;2.76;83.71
41044;BME280;51680;49.806;18.774;2023-11-22T15:26:57;98278.72;;;2.75;83.28
41044;BME280;51680;49.806;18.774;2023-11-22T15:29:59;98285.59;;;2.76;83.52
41044;BME280;51680;49.806;18.774;2023-11-22T15:33:02;98279.50;;;2.79;82.81
41044;BME280;51680;49.806;18.774;2023-11-22T15:36:06;98300.00;;;2.85;83.43
41044;BME280;51680;49.806;18.774;2023-11-22T15:39:10;98292.28;;;2.85;83.27
41044;BME280;51680;49.806;18.774;2023-11-22T15:42:15;98308.63;;;2.85;82.94
41044;BME280;51680;49.806;18.774;2023-11-22T15:45:17;98311.16;;;2.87;82.94
41044;BME280;51680;49.806;18.774;2023-11-22T15:48:19;98317.22;;;2.84;82.75
41044;BME280;51680;49.806;18.774;2023-11-22T15:51:21;98312.00;;;2.87;82.85
41044;BME280;51680;49.806;18.774;2023-11-22T15:54:25;98311.06;;;2.91;83.19
41044;BME280;51680;49.806;18.774;2023-11-22T15:57:27;98318.91;;;2.85;82.27
41044;BME280;51680;49.806;18.774;2023-11-22T16:00:29;98318.16;;;2.80;82.68
41044;BME280;51680;49.806;18.774;2023-11-22T16:03:31;98313.16;;;2.73;82.44
41044;BME280;51680;49.806;18.774;2023-11-22T16:06:34;98319.16;;;2.73;82.86
41044;BME280;51680;49.806;18.774;2023-11-22T16:09:38;98310.47;;;2.77;82.89
41044;BME280;51680;49.806;18.774;2023-11-22T16:12:43;98309.56;;;2.80;82.49